21:36
Airports
History
Links
Donate
Help keep this website running!
PayPal
Bitcoin
This page is community maintained. The information is intended for PC simulator navigation or reference.
Always use approved charts for navigation.
SBAF
Campo Delio Jardim de MattosEdited 07-Mar-2012
Campo Delio Jardim de Mattos (SBAF)
Rio de Janeiro, Rio de Janeiro, Brazil (21740)
(C)
Lat/Lng:22° 52' 30.3" S / 43° 23' 4.95" W
-22.875083 / -43.384709
Elevation:110'ft / 34mMSL
ID / ICAO:SBAF
Runways:1
Longest:(08-26) 1,995.6m / 6,547ft Concrete
Controlled:Yes
Beacon:Yellow
Distance To
Airport ID:
Airport Radio Frequencies
Ground: 121.85
Tower: 118.9
Approach: 119.35
METARUpdated 08-16-17 21:00 GMT
Altimeter: 30.06
Visibility: 2.5 statute miles
Wind: 3 knots (250°)
Temp: 19°c 66°f
Humidity: 93.9%

METAR: SBAF 162100Z 25003KT 4000 -RA BR BKN007 OVC030 19/18 Q1018

(Powered by phpweather)
Runway 08 / 26
Dimensions:1995.6 x 52.1m 6547' x 171'ft
Surface:Concrete
Edge Lights:Low intensity
Runway 08 [A]Runway 26 [B]
Heading:061°TH 241°TH
Lat:
Lng:
22° 52' 45.6"S
43° 23' 35.7"W
22° 52' 15"S
43° 22' 34.2"W
User Notes and Comments
Google Map
Nearby Airports
(C) Jacarepagua 7.8 NM
SBJR (WX) S 173°
4 Clube Ceu 8.5 NM
SDIN S 187°
(U) AEROCLUBE NOVA IGUACU 10.2 NM
SDNY NNW 331°
(C) Galeao Antonio Carlos Jombim 10.2 NM
SBGL (WX) ENE 64°
(C) Santos-Dumont 14.3 NM
SBRJ (WX) E 99°
(C) SANTA CRUZ 21.6 NM
SBSC (WX) W 259°
4 Marambaia 34.1 NM
SDMR WSW 247°
VFR Chart
Flight Planning at SkyVector.com